createdAt,value
2023-05-04T00:00:32.938Z,2.75
2023-05-04T00:01:11.233Z,2.15
2023-05-04T00:01:45.324Z,2.60
2023-05-04T00:02:19.023Z,2.60
2023-05-04T00:02:54.548Z,2.63
2023-05-04T00:03:29.871Z,2.15
2023-05-04T00:04:04.402Z,2.20
2023-05-04T00:04:38.901Z,2.30
2023-05-04T00:05:13.465Z,2.40
2023-05-04T00:05:47.584Z,2.55
2023-05-04T00:06:21.995Z,2.20
2023-05-04T00:06:56.815Z,2.30
2023-05-04T00:07:30.565Z,2.53
2023-05-04T00:08:05.992Z,2.80
2023-05-04T00:08:39.377Z,2.40
2023-05-04T00:09:13.723Z,2.00
2023-05-04T00:09:49.446Z,2.50
2023-05-04T00:10:23.528Z,2.53
2023-05-04T00:10:57.331Z,2.10
2023-05-04T00:11:32.065Z,1.70
2023-05-04T00:12:06.993Z,2.20
2023-05-04T00:12:40.721Z,2.33
2023-05-04T00:13:16.340Z,2.53
2023-05-04T00:13:50.669Z,2.13
2023-05-04T00:14:24.932Z,2.28
2023-05-04T00:14:59.913Z,2.45
2023-05-04T00:15:33.532Z,2.10
2023-05-04T00:16:10.919Z,2.17
2023-05-04T00:16:47.446Z,2.15
2023-05-04T00:17:21.191Z,2.30
2023-05-04T00:17:56.367Z,2.25
2023-05-04T00:18:32.713Z,2.28
2023-05-04T00:19:06.447Z,2.83
2023-05-04T00:19:42.759Z,2.10
2023-05-04T00:20:17.332Z,2.53
2023-05-04T00:20:52.146Z,1.98
2023-05-04T00:21:26.932Z,2.35
2023-05-04T00:22:00.350Z,2.30
2023-05-04T00:22:33.420Z,2.10
2023-05-04T00:23:07.508Z,2.30
2023-05-04T00:23:41.331Z,2.22
2023-05-04T00:24:15.570Z,2.33
2023-05-04T00:24:50.350Z,2.00
2023-05-04T00:25:23.946Z,2.35
2023-05-04T00:25:59.459Z,2.10
2023-05-04T00:26:34.429Z,2.30
2023-05-04T00:27:10.914Z,2.60
2023-05-04T00:27:45.384Z,2.10
2023-05-04T00:28:19.983Z,2.50
2023-05-04T00:28:53.780Z,2.40
2023-05-04T00:29:27.584Z,2.08
2023-05-04T00:30:02.642Z,2.35
2023-05-04T00:30:36.725Z,2.38
2023-05-04T00:31:10.297Z,2.35
2023-05-04T00:31:44.093Z,2.58
2023-05-04T00:32:18.173Z,2.28
2023-05-04T00:32:51.382Z,2.00
2023-05-04T00:33:24.837Z,2.47
2023-05-04T00:34:00.433Z,2.35
2023-05-04T00:34:34.806Z,2.33
2023-05-04T00:35:10.387Z,2.15
2023-05-04T00:35:45.245Z,2.90
2023-05-04T00:36:18.426Z,2.53
2023-05-04T00:36:53.738Z,2.60
2023-05-04T00:37:28.086Z,2.38
2023-05-04T00:38:00.984Z,2.10
2023-05-04T00:38:49.979Z,2.75
2023-05-04T00:39:24.505Z,2.45
2023-05-04T00:39:58.267Z,2.50
2023-05-04T00:40:32.830Z,2.25
2023-05-04T00:41:07.609Z,2.72
2023-05-04T00:41:41.417Z,2.58
2023-05-04T00:42:16.091Z,2.50
2023-05-04T00:42:51.704Z,2.20
2023-05-04T00:43:26.913Z,2.72
2023-05-04T00:44:03.201Z,2.80
2023-05-04T00:44:36.441Z,3.25
2023-05-04T00:45:11.651Z,3.42
2023-05-04T00:45:46.344Z,2.67
2023-05-04T00:46:20.629Z,2.42
2023-05-04T00:46:54.132Z,2.50
2023-05-04T00:47:30.242Z,2.67
2023-05-04T00:48:04.097Z,2.40
2023-05-04T00:48:38.233Z,2.13
2023-05-04T00:49:15.401Z,2.42
2023-05-04T00:49:49.956Z,2.78
2023-05-04T00:50:23.750Z,2.90
2023-05-04T00:50:57.633Z,2.80
2023-05-04T00:51:31.838Z,3.17
2023-05-04T00:52:05.598Z,2.97
2023-05-04T00:52:40.317Z,2.70
2023-05-04T00:53:14.812Z,2.88
2023-05-04T00:53:50.749Z,2.80
2023-05-04T00:54:25.484Z,2.47
2023-05-04T00:54:59.737Z,2.80
2023-05-04T00:55:33.618Z,2.47
2023-05-04T00:56:08.479Z,2.35
2023-05-04T00:56:43.972Z,2.47
2023-05-04T00:57:17.993Z,2.05
2023-05-04T00:57:53.411Z,2.30
2023-05-04T00:58:27.406Z,2.58
2023-05-04T00:59:00.979Z,2.22
2023-05-04T00:59:35.530Z,2.33
2023-05-04T01:00:11.251Z,2.70
2023-05-04T01:00:45.273Z,2.63
2023-05-04T01:01:19.964Z,2.50
2023-05-04T01:01:53.437Z,2.60
2023-05-04T01:02:27.552Z,2.60
2023-05-04T01:03:01.610Z,2.42
2023-05-04T01:03:36.012Z,2.50
2023-05-04T01:04:09.407Z,2.80
2023-05-04T01:04:45.717Z,2.75
2023-05-04T01:05:19.835Z,2.55
2023-05-04T01:05:58.891Z,2.28
2023-05-04T01:06:37.685Z,2.05
2023-05-04T01:07:14.657Z,2.33
2023-05-04T01:07:50.920Z,2.72
2023-05-04T01:08:29.663Z,2.20
2023-05-04T01:09:08.074Z,1.98
2023-05-04T01:09:44.650Z,2.42
2023-05-04T01:10:22.821Z,2.13
2023-05-04T01:11:00.400Z,2.83
2023-05-04T01:11:37.603Z,2.13
2023-05-04T01:12:18.753Z,2.35
2023-05-04T01:12:57.172Z,2.50
2023-05-04T01:13:35.413Z,2.10
2023-05-04T01:14:14.162Z,1.98
2023-05-04T01:14:48.853Z,2.30
2023-05-04T01:15:23.455Z,2.10
2023-05-04T01:15:58.273Z,2.33
2023-05-04T01:16:32.555Z,2.33
2023-05-04T01:17:08.648Z,2.38
2023-05-04T01:17:43.140Z,2.50
2023-05-04T01:18:17.432Z,2.35
2023-05-04T01:18:50.949Z,2.30
2023-05-04T01:19:25.077Z,2.25
2023-05-04T01:20:00.805Z,2.25
2023-05-04T01:20:34.278Z,2.72
2023-05-04T01:21:10.393Z,2.58
2023-05-04T01:21:46.601Z,2.70
2023-05-04T01:22:20.538Z,2.10
2023-05-04T01:22:53.610Z,2.50
2023-05-04T01:23:28.288Z,2.67
2023-05-04T01:24:03.237Z,1.95
2023-05-04T01:24:36.862Z,2.25
2023-05-04T01:25:12.648Z,2.33
2023-05-04T01:25:56.348Z,1.98
2023-05-04T01:26:33.767Z,2.38
2023-05-04T01:27:12.447Z,2.30
2023-05-04T01:27:51.053Z,2.30
2023-05-04T01:28:34.850Z,1.75
2023-05-04T01:29:17.062Z,2.00
2023-05-04T01:29:57.204Z,2.60
2023-05-04T01:30:35.606Z,2.25
2023-05-04T01:31:14.529Z,2.55
2023-05-04T01:31:52.928Z,2.95
2023-05-04T01:32:29.513Z,2.58
2023-05-04T01:33:05.872Z,2.35
2023-05-04T01:33:39.906Z,2.45
2023-05-04T01:34:13.600Z,2.58
2023-05-04T01:34:48.088Z,2.20
2023-05-04T01:35:23.411Z,2.50
2023-05-04T01:35:57.348Z,2.35
2023-05-04T01:36:33.741Z,2.30
2023-05-04T01:37:09.635Z,2.45
2023-05-04T01:37:42.390Z,2.35
2023-05-04T01:38:16.592Z,2.65
2023-05-04T01:38:54.147Z,2.35
2023-05-04T01:39:30.747Z,2.70
2023-05-04T01:40:05.952Z,2.28
2023-05-04T01:40:39.375Z,2.70
2023-05-04T01:41:12.449Z,2.33
2023-05-04T01:41:47.430Z,2.67
2023-05-04T01:42:22.248Z,2.38
2023-05-04T01:42:55.767Z,2.47
2023-05-04T01:43:30.109Z,2.30
2023-05-04T01:44:05.447Z,2.30
2023-05-04T01:44:39.830Z,2.42
2023-05-04T01:45:14.621Z,2.35
2023-05-04T01:45:49.766Z,2.90
2023-05-04T01:46:23.927Z,3.17
2023-05-04T01:46:58.169Z,2.80
2023-05-04T01:47:31.656Z,2.40
2023-05-04T01:48:07.520Z,2.17
2023-05-04T01:48:41.570Z,2.47
2023-05-04T01:49:15.655Z,2.35
2023-05-04T01:49:50.121Z,2.50
2023-05-04T01:50:23.971Z,2.30
2023-05-04T01:50:57.422Z,2.55
2023-05-04T01:51:31.248Z,2.30
2023-05-04T01:52:07.655Z,2.08
2023-05-04T01:52:42.932Z,2.10
2023-05-04T01:53:17.118Z,2.15
2023-05-04T01:53:49.881Z,1.90
2023-05-04T01:54:24.938Z,2.42
2023-05-04T01:54:58.559Z,2.10
2023-05-04T01:55:32.806Z,2.25
2023-05-04T01:56:08.502Z,2.45
2023-05-04T01:56:42.814Z,2.50
2023-05-04T01:57:15.890Z,1.98
2023-05-04T01:57:50.204Z,2.33
2023-05-04T01:58:24.530Z,2.50
2023-05-04T01:58:58.376Z,2.30
2023-05-04T01:59:33.953Z,2.50
2023-05-04T02:00:10.976Z,2.20
2023-05-04T02:00:51.531Z,2.40
2023-05-04T02:01:25.752Z,2.35
2023-05-04T02:01:59.240Z,2.15
2023-05-04T02:02:35.200Z,2.33
2023-05-04T02:03:10.172Z,2.42
2023-05-04T02:03:45.872Z,2.22
2023-05-04T02:04:20.743Z,2.13
2023-05-04T02:04:54.393Z,2.20
2023-05-04T02:05:27.990Z,1.90
2023-05-04T02:06:01.037Z,2.30
2023-05-04T02:06:35.021Z,2.60
2023-05-04T02:07:09.431Z,2.45
2023-05-04T02:07:44.854Z,2.40
2023-05-04T02:08:19.040Z,2.30
2023-05-04T02:08:53.775Z,2.90
2023-05-04T02:09:28.224Z,2.30
2023-05-04T02:10:01.784Z,2.38
2023-05-04T02:10:36.456Z,2.47
2023-05-04T02:11:09.415Z,2.05
2023-05-04T02:12:04.409Z,2.05
2023-05-04T02:12:38.125Z,1.98
2023-05-04T02:13:11.422Z,2.47
2023-05-04T02:13:47.782Z,2.50
2023-05-04T02:14:21.640Z,2.13
2023-05-04T02:14:54.988Z,2.45
2023-05-04T02:15:30.638Z,2.30
2023-05-04T02:16:03.277Z,2.70
2023-05-04T02:16:37.131Z,2.35
2023-05-04T02:17:11.640Z,2.30
2023-05-04T02:17:46.063Z,2.55
2023-05-04T02:18:19.572Z,2.55
2023-05-04T02:18:54.459Z,2.35
2023-05-04T02:19:28.499Z,2.17
2023-05-04T02:20:02.633Z,2.63
2023-05-04T02:20:38.343Z,2.20
2023-05-04T02:21:12.353Z,2.17
2023-05-04T02:21:47.997Z,2.70
2023-05-04T02:22:22.493Z,2.47
2023-05-04T02:22:59.015Z,2.72
2023-05-04T02:23:32.243Z,2.10
2023-05-04T02:24:08.971Z,2.20
2023-05-04T02:24:41.732Z,2.53
2023-05-04T02:25:14.330Z,2.35
2023-05-04T02:25:48.435Z,2.50
2023-05-04T02:26:22.301Z,1.98
2023-05-04T02:26:56.307Z,2.17
2023-05-04T02:27:29.947Z,2.45
2023-05-04T02:28:05.650Z,2.42
2023-05-04T02:28:39.555Z,2.28
2023-05-04T02:29:12.589Z,2.38
2023-05-04T02:29:46.936Z,2.40
2023-05-04T02:30:21.664Z,2.40
2023-05-04T02:30:56.042Z,2.20
2023-05-04T02:31:30.517Z,2.20
2023-05-04T02:32:06.469Z,2.00
2023-05-04T02:32:40.999Z,2.20
2023-05-04T02:33:14.877Z,2.35
2023-05-04T02:33:52.624Z,2.63
2023-05-04T02:34:26.476Z,2.20
2023-05-04T02:35:00.423Z,2.35
2023-05-04T02:35:36.976Z,2.08
2023-05-04T02:36:11.532Z,2.47
2023-05-04T02:36:44.616Z,2.65
2023-05-04T02:37:20.331Z,2.95
2023-05-04T02:37:53.897Z,2.50
2023-05-04T02:38:28.171Z,2.30
2023-05-04T02:39:03.040Z,2.38
2023-05-04T02:39:37.237Z,2.28
2023-05-04T02:40:14.536Z,3.08
2023-05-04T02:40:49.151Z,3.00
2023-05-04T02:41:26.100Z,2.85
2023-05-04T02:41:59.605Z,2.97
2023-05-04T02:42:33.940Z,2.90
2023-05-04T02:43:07.765Z,3.30
2023-05-04T02:43:41.981Z,3.10
2023-05-04T02:44:16.562Z,3.58
2023-05-04T02:44:51.035Z,3.20
2023-05-04T02:45:23.649Z,3.08
2023-05-04T02:45:57.913Z,3.25
2023-05-04T02:46:31.821Z,3.25
2023-05-04T02:47:07.252Z,3.00
2023-05-04T02:47:42.512Z,2.78
2023-05-04T02:48:16.046Z,2.20
2023-05-04T02:48:50.255Z,2.63
2023-05-04T02:49:24.710Z,2.50
2023-05-04T02:49:59.864Z,2.55
2023-05-04T02:50:33.821Z,2.45
2023-05-04T02:51:06.530Z,2.30
2023-05-04T02:51:41.571Z,2.75
2023-05-04T02:52:15.405Z,2.50
2023-05-04T02:52:50.197Z,2.50
2023-05-04T02:53:25.190Z,2.30
2023-05-04T02:53:59.741Z,2.15
2023-05-04T02:54:33.801Z,2.72
2023-05-04T02:55:09.908Z,2.50
2023-05-04T02:55:43.738Z,2.92
2023-05-04T02:56:17.002Z,2.25
2023-05-04T02:56:51.035Z,11.98
2023-05-04T02:57:25.433Z,2.80
2023-05-04T02:57:59.837Z,2.38
2023-05-04T02:58:35.448Z,2.60
2023-05-04T02:59:08.201Z,2.30
2023-05-04T02:59:41.848Z,1.95
2023-05-04T03:00:18.262Z,2.10
2023-05-04T03:00:56.310Z,2.28
2023-05-04T03:01:30.840Z,2.33
2023-05-04T03:02:07.108Z,2.25
2023-05-04T03:02:41.142Z,2.17
2023-05-04T03:03:14.445Z,2.58
2023-05-04T03:03:50.275Z,2.40
2023-05-04T03:04:23.793Z,2.45
2023-05-04T03:04:59.252Z,2.55
2023-05-04T03:05:33.732Z,2.08
2023-05-04T03:06:08.568Z,2.33
2023-05-04T03:06:43.900Z,2.25
2023-05-04T03:07:17.340Z,2.33
2023-05-04T03:07:51.628Z,2.40
2023-05-04T03:08:26.182Z,2.85
2023-05-04T03:09:01.397Z,2.25
2023-05-04T03:09:35.359Z,2.20
2023-05-04T03:10:11.890Z,2.45
2023-05-04T03:10:46.035Z,2.50
2023-05-04T03:11:18.906Z,2.67
2023-05-04T03:11:54.423Z,2.38
2023-05-04T03:12:27.349Z,2.00
2023-05-04T03:13:06.151Z,2.30
2023-05-04T03:13:42.521Z,2.42
2023-05-04T03:14:15.859Z,2.20
2023-05-04T03:14:51.283Z,2.38
2023-05-04T03:15:26.580Z,2.80
2023-05-04T03:16:01.071Z,2.45
2023-05-04T03:16:34.559Z,2.42
2023-05-04T03:17:09.992Z,2.30
2023-05-04T03:17:44.104Z,2.60
2023-05-04T03:18:17.582Z,2.25
2023-05-04T03:18:52.011Z,1.90
2023-05-04T03:19:26.804Z,2.20
2023-05-04T03:20:00.510Z,2.75
2023-05-04T03:20:38.103Z,2.38
2023-05-04T03:21:10.875Z,2.45
2023-05-04T03:21:44.116Z,2.15
2023-05-04T03:22:17.915Z,2.15
2023-05-04T03:22:51.007Z,2.47
2023-05-04T03:23:26.584Z,2.42
2023-05-04T03:24:02.468Z,2.20
2023-05-04T03:24:37.180Z,2.33
2023-05-04T03:25:13.419Z,2.25
2023-05-04T03:25:46.469Z,2.58
2023-05-04T03:26:22.170Z,2.17
2023-05-04T03:26:58.130Z,2.55
2023-05-04T03:27:31.630Z,2.58
2023-05-04T03:28:07.293Z,2.60
2023-05-04T03:28:41.451Z,2.58
2023-05-04T03:29:16.049Z,2.60
2023-05-04T03:29:49.414Z,2.45
2023-05-04T03:30:24.474Z,2.20
2023-05-04T03:31:02.665Z,2.80
2023-05-04T03:31:36.051Z,2.65
2023-05-04T03:32:10.607Z,2.28
2023-05-04T03:32:43.875Z,2.42
2023-05-04T03:33:17.373Z,2.85
2023-05-04T03:33:52.324Z,2.72
2023-05-04T03:34:27.887Z,2.65
2023-05-04T03:35:09.960Z,2.38
2023-05-04T03:35:45.275Z,2.30
2023-05-04T03:36:19.816Z,2.90
2023-05-04T03:36:56.221Z,2.78
2023-05-04T03:37:32.463Z,2.13
2023-05-04T03:38:07.386Z,2.35
2023-05-04T03:38:42.338Z,2.60
2023-05-04T03:39:18.148Z,2.42
2023-05-04T03:39:52.940Z,2.50
2023-05-04T03:40:26.229Z,2.17
2023-05-04T03:41:01.867Z,2.35
2023-05-04T03:41:36.907Z,2.58
2023-05-04T03:42:11.664Z,2.50
2023-05-04T03:42:47.365Z,2.10
2023-05-04T03:43:20.348Z,2.80
2023-05-04T03:43:56.300Z,2.67
2023-05-04T03:44:30.206Z,2.28
2023-05-04T03:45:04.771Z,2.97
2023-05-04T03:45:38.505Z,2.65
2023-05-04T03:46:12.641Z,2.60
2023-05-04T03:46:47.029Z,2.65
2023-05-04T03:47:21.566Z,2.63
2023-05-04T03:47:55.305Z,2.42
2023-05-04T03:48:28.931Z,2.30
2023-05-04T03:49:03.139Z,2.60
2023-05-04T03:49:36.379Z,2.78
2023-05-04T03:50:11.752Z,2.75
2023-05-04T03:50:46.306Z,2.38
2023-05-04T03:51:20.132Z,2.70
2023-05-04T03:51:54.707Z,2.63
2023-05-04T03:52:29.154Z,2.72
2023-05-04T03:53:02.689Z,3.05
2023-05-04T03:53:39.228Z,2.95
2023-05-04T03:54:13.657Z,2.67
2023-05-04T03:54:50.204Z,2.90
2023-05-04T03:55:24.317Z,3.00
2023-05-04T03:55:58.182Z,2.90
2023-05-04T03:56:32.489Z,2.88
2023-05-04T03:57:06.861Z,3.35
2023-05-04T03:57:42.249Z,2.88
2023-05-04T03:58:17.127Z,2.42
2023-05-04T03:58:51.921Z,2.80
2023-05-04T03:59:30.614Z,2.70
2023-05-04T04:00:08.294Z,2.95
2023-05-04T04:00:48.376Z,2.67
2023-05-04T04:01:22.915Z,3.03
2023-05-04T04:01:56.459Z,2.50
2023-05-04T04:02:29.881Z,3.15
2023-05-04T04:03:05.625Z,2.90
2023-05-04T04:03:41.676Z,3.00
2023-05-04T04:04:17.997Z,2.80
2023-05-04T04:04:52.823Z,2.55
2023-05-04T04:05:28.661Z,3.05
2023-05-04T04:06:04.157Z,3.05
2023-05-04T04:06:37.721Z,2.58
2023-05-04T04:07:12.026Z,2.85
2023-05-04T04:07:46.972Z,3.22
2023-05-04T04:08:21.640Z,2.78
2023-05-04T04:08:55.060Z,2.58
2023-05-04T04:09:30.439Z,3.10
2023-05-04T04:10:07.374Z,2.58
2023-05-04T04:10:41.302Z,3.30
2023-05-04T04:11:16.850Z,4.57
2023-05-04T04:11:50.416Z,4.05
2023-05-04T04:12:23.736Z,2.80
2023-05-04T04:12:59.109Z,2.97
2023-05-04T04:13:32.434Z,3.00
2023-05-04T04:14:07.216Z,2.67
2023-05-04T04:14:41.967Z,4.13
2023-05-04T04:15:15.860Z,3.42
2023-05-04T04:15:51.102Z,2.88
2023-05-04T04:16:24.917Z,2.92
2023-05-04T04:16:58.947Z,2.95
2023-05-04T04:17:32.541Z,3.10
2023-05-04T04:18:06.725Z,2.65
2023-05-04T04:18:40.928Z,3.10
2023-05-04T04:19:15.585Z,2.92
2023-05-04T04:19:50.069Z,3.13
2023-05-04T04:20:23.801Z,3.33
2023-05-04T04:20:58.139Z,3.15
2023-05-04T04:21:32.032Z,2.58
2023-05-04T04:22:06.749Z,2.55
2023-05-04T04:22:40.281Z,3.10
2023-05-04T04:23:14.113Z,2.50
2023-05-04T04:23:51.177Z,2.88
2023-05-04T04:24:25.123Z,3.00
2023-05-04T04:24:59.448Z,2.90
2023-05-04T04:25:34.888Z,2.97
2023-05-04T04:26:08.717Z,2.70
2023-05-04T04:26:42.346Z,3.13
2023-05-04T04:27:16.466Z,3.35
2023-05-04T04:27:49.980Z,3.10
2023-05-04T04:28:24.537Z,3.08
2023-05-04T04:28:59.522Z,3.25
2023-05-04T04:29:36.089Z,2.97
2023-05-04T04:30:11.822Z,2.90
2023-05-04T04:30:46.331Z,2.72
2023-05-04T04:31:20.583Z,2.75
2023-05-04T04:31:54.676Z,2.83
2023-05-04T04:32:29.893Z,2.70
2023-05-04T04:33:04.313Z,3.08
2023-05-04T04:33:38.084Z,3.13
2023-05-04T04:34:12.151Z,2.72
2023-05-04T04:34:46.367Z,2.30
2023-05-04T04:35:19.141Z,2.38
2023-05-04T04:35:53.751Z,2.47
2023-05-04T04:36:27.892Z,1.83
2023-05-04T04:37:01.917Z,1.80
2023-05-04T04:37:36.261Z,1.90
2023-05-04T04:38:09.433Z,2.30
2023-05-04T04:38:44.127Z,2.35
2023-05-04T04:39:19.544Z,1.98
2023-05-04T04:39:53.186Z,2.20
2023-05-04T04:40:26.918Z,2.28
2023-05-04T04:41:03.546Z,2.72
2023-05-04T04:41:36.773Z,2.17
2023-05-04T04:42:10.958Z,2.30
2023-05-04T04:42:46.955Z,2.17
2023-05-04T04:43:20.035Z,2.42
2023-05-04T04:43:53.497Z,2.15
2023-05-04T04:44:29.019Z,2.05
2023-05-04T04:45:05.438Z,1.90
2023-05-04T04:45:41.872Z,1.90
2023-05-04T04:46:16.760Z,2.20
2023-05-04T04:46:51.708Z,1.73
2023-05-04T04:47:25.754Z,1.88
2023-05-04T04:48:01.984Z,2.10
2023-05-04T04:48:35.672Z,2.17
2023-05-04T04:49:14.013Z,31.50
2023-05-04T04:49:49.395Z,23.85
2023-05-04T04:50:22.690Z,14.98
2023-05-04T04:50:56.613Z,7.53
2023-05-04T04:51:31.279Z,5.80
2023-05-04T04:52:06.634Z,3.03
2023-05-04T04:52:41.477Z,2.38
2023-05-04T04:53:16.017Z,1.75
2023-05-04T04:53:51.950Z,1.58
2023-05-04T04:54:27.326Z,2.00
2023-05-04T04:55:00.902Z,1.48
2023-05-04T04:55:34.965Z,1.80
2023-05-04T04:56:11.167Z,1.48
2023-05-04T04:56:46.209Z,1.70
2023-05-04T04:57:19.354Z,1.60
2023-05-04T04:57:54.932Z,1.67
2023-05-04T04:58:28.905Z,1.73
2023-05-04T04:59:02.079Z,1.90
2023-05-04T04:59:38.667Z,2.33
2023-05-04T05:00:15.072Z,1.88
2023-05-04T05:00:49.001Z,1.92
2023-05-04T05:01:25.656Z,1.60
2023-05-04T05:02:00.112Z,1.73
2023-05-04T05:02:33.964Z,1.90
2023-05-04T05:03:09.671Z,1.48
2023-05-04T05:03:43.066Z,1.40
2023-05-04T05:04:16.922Z,1.80
2023-05-04T05:04:51.192Z,1.55
2023-05-04T05:05:25.879Z,1.50
2023-05-04T05:06:02.552Z,1.58
2023-05-04T05:06:37.873Z,1.50
2023-05-04T05:07:11.688Z,1.55
2023-05-04T05:07:46.090Z,1.42
2023-05-04T05:08:20.883Z,1.40
2023-05-04T05:08:55.096Z,1.52
2023-05-04T05:09:29.694Z,1.50
2023-05-04T05:10:06.351Z,1.40
2023-05-04T05:10:41.982Z,1.40
2023-05-04T05:11:18.669Z,1.20
2023-05-04T05:11:53.387Z,1.15
2023-05-04T05:12:26.303Z,1.10
2023-05-04T05:13:00.000Z,2.08
2023-05-04T05:13:35.129Z,1.13
2023-05-04T05:14:09.186Z,1.23
2023-05-04T05:14:42.957Z,1.25
2023-05-04T05:15:17.416Z,1.20
2023-05-04T05:15:51.082Z,1.30
2023-05-04T05:16:27.053Z,1.65
2023-05-04T05:17:00.589Z,1.23
2023-05-04T05:17:38.110Z,1.17
2023-05-04T05:18:12.349Z,1.80
2023-05-04T05:18:47.819Z,1.75
2023-05-04T05:19:22.376Z,3.30
2023-05-04T05:19:55.844Z,1.60
2023-05-04T05:20:30.486Z,1.65
2023-05-04T05:21:03.781Z,1.70
2023-05-04T05:21:36.880Z,1.65
2023-05-04T05:22:12.455Z,1.52
2023-05-04T05:22:46.632Z,1.63
2023-05-04T05:23:21.153Z,1.45
2023-05-04T05:23:54.355Z,1.50
2023-05-04T05:24:29.630Z,1.55
2023-05-04T05:25:04.607Z,1.63
2023-05-04T05:25:39.341Z,1.73
2023-05-04T05:26:14.109Z,1.52
2023-05-04T05:26:50.020Z,1.70
2023-05-04T05:27:23.926Z,2.30
2023-05-04T05:27:59.012Z,1.63
2023-05-04T05:28:32.627Z,1.70
2023-05-04T05:29:06.703Z,1.48
2023-05-04T05:29:42.522Z,1.60
2023-05-04T05:30:16.179Z,1.52
2023-05-04T05:30:52.596Z,1.80
2023-05-04T05:31:28.410Z,1.90
2023-05-04T05:32:03.530Z,1.83
2023-05-04T05:32:38.263Z,1.90
2023-05-04T05:33:12.440Z,2.00
2023-05-04T05:33:46.200Z,1.98
2023-05-04T05:34:19.864Z,1.92
2023-05-04T05:34:54.481Z,2.15
2023-05-04T05:35:28.487Z,1.30
2023-05-04T05:36:04.041Z,1.92
2023-05-04T05:36:37.901Z,2.00
2023-05-04T05:37:13.409Z,1.85
2023-05-04T05:37:49.561Z,1.50
2023-05-04T05:38:23.519Z,1.73
2023-05-04T05:38:58.315Z,1.60
2023-05-04T05:39:32.496Z,1.60
2023-05-04T05:40:10.344Z,1.60
2023-05-04T05:40:44.525Z,1.63
2023-05-04T05:41:19.966Z,1.95
2023-05-04T05:41:58.814Z,1.80
2023-05-04T05:42:32.473Z,2.15
2023-05-04T05:43:07.321Z,1.77
2023-05-04T05:43:41.470Z,1.77
2023-05-04T05:44:15.368Z,1.45
2023-05-04T05:44:50.424Z,2.08
2023-05-04T05:45:24.422Z,1.75
2023-05-04T05:45:58.288Z,1.88
2023-05-04T05:46:34.125Z,1.80
2023-05-04T05:47:08.298Z,2.20
2023-05-04T05:47:43.408Z,1.60
2023-05-04T05:48:17.102Z,2.30
2023-05-04T05:48:52.269Z,1.60
2023-05-04T05:49:27.037Z,1.98
2023-05-04T05:50:02.126Z,1.85
2023-05-04T05:50:35.228Z,1.60
2023-05-04T05:51:09.804Z,1.70
2023-05-04T05:51:43.751Z,1.58
2023-05-04T05:52:17.883Z,1.67
2023-05-04T05:52:52.233Z,1.70
2023-05-04T05:53:26.608Z,1.88
2023-05-04T05:54:00.689Z,1.50
2023-05-04T05:54:37.366Z,1.60
2023-05-04T05:55:12.908Z,1.90
2023-05-04T05:55:47.243Z,1.80
2023-05-04T05:56:22.375Z,1.63
2023-05-04T05:56:58.395Z,1.45
2023-05-04T05:57:31.908Z,1.80
2023-05-04T05:58:07.492Z,1.60
2023-05-04T05:58:40.828Z,1.33
2023-05-04T05:59:15.027Z,1.52
2023-05-04T05:59:48.214Z,1.30
2023-05-04T06:00:22.600Z,1.20
2023-05-04T06:00:57.826Z,1.88
2023-05-04T06:01:31.709Z,1.40
2023-05-04T06:02:06.800Z,1.33
2023-05-04T06:02:42.010Z,1.60
2023-05-04T06:03:15.596Z,1.38
2023-05-04T06:03:52.112Z,2.05
2023-05-04T06:04:26.432Z,1.70
2023-05-04T06:05:02.605Z,1.50
2023-05-04T06:05:36.257Z,1.73
2023-05-04T06:06:13.221Z,1.23
2023-05-04T06:06:47.576Z,1.25
2023-05-04T06:07:21.811Z,1.00
2023-05-04T06:07:56.209Z,1.10
2023-05-04T06:08:29.654Z,1.25
2023-05-04T06:09:03.303Z,1.60
2023-05-04T06:09:39.198Z,1.40
2023-05-04T06:10:14.447Z,1.38
2023-05-04T06:10:51.661Z,1.40
2023-05-04T06:11:25.590Z,1.40
2023-05-04T06:12:02.126Z,1.35
2023-05-04T06:12:35.958Z,1.20
2023-05-04T06:13:09.363Z,1.33
2023-05-04T06:13:44.212Z,1.55
2023-05-04T06:14:19.969Z,1.52
2023-05-04T06:14:55.374Z,1.38
2023-05-04T06:15:29.371Z,1.67
2023-05-04T06:16:03.935Z,1.55
2023-05-04T06:16:37.699Z,1.67
2023-05-04T06:17:11.536Z,1.45
2023-05-04T06:17:48.968Z,1.45
2023-05-04T06:18:22.975Z,1.40
2023-05-04T06:18:58.845Z,1.45
2023-05-04T06:19:36.033Z,1.48
2023-05-04T06:20:10.375Z,1.25
2023-05-04T06:20:45.135Z,1.60
2023-05-04T06:21:18.481Z,1.50
2023-05-04T06:21:53.117Z,1.20
2023-05-04T06:22:28.566Z,1.38
2023-05-04T06:23:02.754Z,1.73
2023-05-04T06:23:38.036Z,1.10
2023-05-04T06:24:12.168Z,1.13
2023-05-04T06:24:47.253Z,1.25
2023-05-04T06:25:22.588Z,1.30
2023-05-04T06:25:57.324Z,1.70
2023-05-04T06:26:32.210Z,1.40
2023-05-04T06:27:08.067Z,1.35
2023-05-04T06:27:43.270Z,1.27
2023-05-04T06:28:17.350Z,1.30
2023-05-04T06:28:51.781Z,1.50
2023-05-04T06:29:27.105Z,1.30
2023-05-04T06:30:00.369Z,1.30
2023-05-04T06:30:35.360Z,1.60
2023-05-04T06:31:09.788Z,1.38
2023-05-04T06:31:43.723Z,1.55
2023-05-04T06:32:19.956Z,1.20
2023-05-04T06:32:54.095Z,1.70
2023-05-04T06:33:29.038Z,1.45
2023-05-04T06:34:02.605Z,1.15
2023-05-04T06:34:36.097Z,1.48
2023-05-04T06:35:11.797Z,1.20
2023-05-04T06:35:45.396Z,1.10
2023-05-04T06:36:20.335Z,1.20
2023-05-04T06:36:54.748Z,1.33
2023-05-04T06:37:30.434Z,1.23
2023-05-04T06:38:04.073Z,1.20
2023-05-04T06:38:39.832Z,1.10
2023-05-04T06:39:14.431Z,1.00
2023-05-04T06:39:50.839Z,0.95
2023-05-04T06:40:25.497Z,1.30
2023-05-04T06:40:59.081Z,1.00
2023-05-04T06:41:33.720Z,1.00
2023-05-04T06:42:09.145Z,1.00
2023-05-04T06:42:47.213Z,1.05
2023-05-04T06:43:20.467Z,0.98
2023-05-04T06:43:58.261Z,0.93
2023-05-04T06:44:35.762Z,0.98
2023-05-04T06:45:11.648Z,0.90
2023-05-04T06:45:45.789Z,0.90
2023-05-04T06:46:19.913Z,0.98
2023-05-04T06:46:56.404Z,0.90
2023-05-04T06:47:30.397Z,1.30
2023-05-04T06:48:04.205Z,0.90
2023-05-04T06:48:39.228Z,0.90
2023-05-04T06:49:14.021Z,0.80
2023-05-04T06:49:47.594Z,1.30
2023-05-04T06:50:24.011Z,0.80
2023-05-04T06:50:58.838Z,1.10
2023-05-04T06:51:36.365Z,1.00
2023-05-04T06:52:09.793Z,0.63
2023-05-04T06:52:47.186Z,0.75
2023-05-04T06:53:22.351Z,0.80
2023-05-04T06:53:57.469Z,0.70
2023-05-04T06:54:33.209Z,1.15
2023-05-04T06:55:09.209Z,0.95
2023-05-04T06:55:43.212Z,0.80
2023-05-04T06:56:18.262Z,1.00
2023-05-04T06:56:52.396Z,0.70
2023-05-04T06:57:30.585Z,0.98
2023-05-04T06:58:05.488Z,0.82
2023-05-04T06:58:39.749Z,0.85
2023-05-04T06:59:13.398Z,0.85
2023-05-04T06:59:47.713Z,0.80
2023-05-04T07:00:23.995Z,0.73
2023-05-04T07:00:57.123Z,0.70
2023-05-04T07:01:31.511Z,0.90
2023-05-04T07:02:05.388Z,0.90
2023-05-04T07:02:40.160Z,1.13
2023-05-04T07:03:15.469Z,1.00
2023-05-04T07:03:50.081Z,0.60
2023-05-04T07:04:25.031Z,0.70
2023-05-04T07:04:58.771Z,0.80
2023-05-04T07:05:35.816Z,0.75
2023-05-04T07:06:11.829Z,1.15
2023-05-04T07:06:46.573Z,1.10
2023-05-04T07:07:21.229Z,0.90
2023-05-04T07:07:55.908Z,0.82
2023-05-04T07:08:30.462Z,1.00
2023-05-04T07:09:04.076Z,1.10
2023-05-04T07:09:38.404Z,0.90
2023-05-04T07:10:15.091Z,1.05
2023-05-04T07:10:49.415Z,0.80
2023-05-04T07:11:25.003Z,0.90
2023-05-04T07:11:59.707Z,1.00
2023-05-04T07:12:35.794Z,1.20
2023-05-04T07:13:09.684Z,1.13
2023-05-04T07:13:45.849Z,1.00
2023-05-04T07:14:19.832Z,0.85
2023-05-04T07:14:55.203Z,0.98
2023-05-04T07:15:28.176Z,1.17
2023-05-04T07:16:01.949Z,0.90
2023-05-04T07:16:37.844Z,0.98
2023-05-04T07:17:12.511Z,0.73
2023-05-04T07:17:47.787Z,0.95
2023-05-04T07:18:21.418Z,0.70
2023-05-04T07:18:55.861Z,1.52
2023-05-04T07:19:29.996Z,1.08
2023-05-04T07:20:04.854Z,0.90
2023-05-04T07:20:40.281Z,1.23
2023-05-04T07:22:07.993Z,1.10
2023-05-04T07:22:42.570Z,0.90
2023-05-04T07:23:17.324Z,0.85
2023-05-04T07:23:50.682Z,0.68
2023-05-04T07:24:30.868Z,0.70
2023-05-04T07:25:06.308Z,0.65
2023-05-04T07:25:40.647Z,1.00
2023-05-04T07:26:15.740Z,0.80
2023-05-04T07:26:48.910Z,0.77
2023-05-04T07:27:23.603Z,0.77
2023-05-04T07:27:59.417Z,1.17
2023-05-04T07:28:35.542Z,0.90
2023-05-04T07:29:10.506Z,0.82
2023-05-04T07:29:45.969Z,0.80
2023-05-04T07:30:20.628Z,0.70
2023-05-04T07:30:55.359Z,0.60
2023-05-04T07:31:30.641Z,0.95
2023-05-04T07:32:07.125Z,0.60
2023-05-04T07:32:39.900Z,0.93
2023-05-04T07:33:16.268Z,0.80
2023-05-04T07:33:51.596Z,0.70
2023-05-04T07:34:37.878Z,1.02
2023-05-04T07:35:19.910Z,0.60
2023-05-04T07:35:59.179Z,0.85
2023-05-04T07:36:36.098Z,0.60
2023-05-04T07:37:11.938Z,0.90
2023-05-04T07:37:47.139Z,0.70
2023-05-04T07:38:22.628Z,0.90
2023-05-04T07:38:57.080Z,1.10
2023-05-04T07:39:31.122Z,0.82
2023-05-04T07:40:08.443Z,1.02
2023-05-04T07:40:43.387Z,0.60
2023-05-04T07:41:16.764Z,0.88
2023-05-04T07:41:51.880Z,0.93
2023-05-04T07:42:28.079Z,0.93
2023-05-04T07:43:03.523Z,0.80
2023-05-04T07:43:39.424Z,0.82
2023-05-04T07:44:14.075Z,0.80
2023-05-04T07:44:49.144Z,0.63
2023-05-04T07:45:23.019Z,0.70
2023-05-04T07:45:59.059Z,0.80